sensor_id;sensor_type;location;lat;lon;timestamp;P1;durP1;ratioP1;P2;durP2;ratioP2
7813;SDS011;3952;48.364;16.022;2023-04-20T00:02:17;7.30;;;6.90;;
7813;SDS011;3952;48.364;16.022;2023-04-20T00:04:47;8.30;;;7.70;;
7813;SDS011;3952;48.364;16.022;2023-04-20T00:07:14;8.27;;;7.67;;
7813;SDS011;3952;48.364;16.022;2023-04-20T00:09:41;7.63;;;7.13;;
7813;SDS011;3952;48.364;16.022;2023-04-20T00:12:09;7.90;;;7.40;;
7813;SDS011;3952;48.364;16.022;2023-04-20T00:14:36;8.60;;;8.00;;
7813;SDS011;3952;48.364;16.022;2023-04-20T00:17:03;7.77;;;7.07;;
7813;SDS011;3952;48.364;16.022;2023-04-20T00:19:30;8.10;;;7.33;;
7813;SDS011;3952;48.364;16.022;2023-04-20T00:21:59;7.80;;;7.30;;
7813;SDS011;3952;48.364;16.022;2023-04-20T00:24:26;8.13;;;7.43;;
7813;SDS011;3952;48.364;16.022;2023-04-20T00:26:54;8.37;;;7.77;;
7813;SDS011;3952;48.364;16.022;2023-04-20T00:29:21;8.50;;;7.80;;
7813;SDS011;3952;48.364;16.022;2023-04-20T00:31:48;8.83;;;8.17;;
7813;SDS011;3952;48.364;16.022;2023-04-20T00:34:15;9.13;;;8.37;;
7813;SDS011;3952;48.364;16.022;2023-04-20T00:36:42;8.67;;;8.07;;
7813;SDS011;3952;48.364;16.022;2023-04-20T00:39:11;7.90;;;7.40;;
7813;SDS011;3952;48.364;16.022;2023-04-20T00:41:38;8.37;;;7.77;;
7813;SDS011;3952;48.364;16.022;2023-04-20T00:44:06;8.43;;;7.83;;
7813;SDS011;3952;48.364;16.022;2023-04-20T00:46:36;9.20;;;8.40;;
7813;SDS011;3952;48.364;16.022;2023-04-20T00:49:03;8.47;;;7.87;;
7813;SDS011;3952;48.364;16.022;2023-04-20T00:51:32;9.33;;;8.50;;
7813;SDS011;3952;48.364;16.022;2023-04-20T00:54:01;9.33;;;8.43;;
7813;SDS011;3952;48.364;16.022;2023-04-20T00:56:29;9.10;;;8.30;;
7813;SDS011;3952;48.364;16.022;2023-04-20T00:58:57;8.83;;;8.23;;
7813;SDS011;3952;48.364;16.022;2023-04-20T01:01:24;9.00;;;8.40;;
7813;SDS011;3952;48.364;16.022;2023-04-20T01:03:51;9.30;;;8.40;;
7813;SDS011;3952;48.364;16.022;2023-04-20T01:06:19;8.97;;;8.37;;
7813;SDS011;3952;48.364;16.022;2023-04-20T01:08:47;9.00;;;8.30;;
7813;SDS011;3952;48.364;16.022;2023-04-20T01:11:16;8.50;;;7.90;;
7813;SDS011;3952;48.364;16.022;2023-04-20T01:13:45;8.70;;;8.13;;
7813;SDS011;3952;48.364;16.022;2023-04-20T01:16:13;8.93;;;8.33;;
7813;SDS011;3952;48.364;16.022;2023-04-20T01:18:41;8.80;;;8.10;;
7813;SDS011;3952;48.364;16.022;2023-04-20T01:21:10;9.10;;;8.50;;
7813;SDS011;3952;48.364;16.022;2023-04-20T01:23:39;8.70;;;7.90;;
7813;SDS011;3952;48.364;16.022;2023-04-20T01:26:08;8.80;;;8.27;;
7813;SDS011;3952;48.364;16.022;2023-04-20T01:28:36;8.57;;;7.97;;
7813;SDS011;3952;48.364;16.022;2023-04-20T01:31:05;9.67;;;8.93;;
7813;SDS011;3952;48.364;16.022;2023-04-20T01:33:33;9.63;;;8.83;;
7813;SDS011;3952;48.364;16.022;2023-04-20T01:36:01;10.03;;;9.33;;
7813;SDS011;3952;48.364;16.022;2023-04-20T01:38:28;9.90;;;9.10;;
7813;SDS011;3952;48.364;16.022;2023-04-20T01:40:58;9.13;;;8.50;;
7813;SDS011;3952;48.364;16.022;2023-04-20T01:43:26;9.73;;;9.03;;
7813;SDS011;3952;48.364;16.022;2023-04-20T01:45:54;10.17;;;9.43;;
7813;SDS011;3952;48.364;16.022;2023-04-20T01:48:21;9.00;;;8.40;;
7813;SDS011;3952;48.364;16.022;2023-04-20T01:50:49;9.60;;;8.90;;
7813;SDS011;3952;48.364;16.022;2023-04-20T01:53:16;10.77;;;9.97;;
7813;SDS011;3952;48.364;16.022;2023-04-20T01:55:44;10.50;;;9.70;;
7813;SDS011;3952;48.364;16.022;2023-04-20T01:58:12;10.67;;;9.77;;
7813;SDS011;3952;48.364;16.022;2023-04-20T02:00:40;10.67;;;9.80;;
7813;SDS011;3952;48.364;16.022;2023-04-20T02:03:07;10.00;;;9.23;;
7813;SDS011;3952;48.364;16.022;2023-04-20T02:05:35;10.37;;;9.67;;
7813;SDS011;3952;48.364;16.022;2023-04-20T02:08:02;10.23;;;9.50;;
7813;SDS011;3952;48.364;16.022;2023-04-20T02:10:29;9.97;;;9.33;;
7813;SDS011;3952;48.364;16.022;2023-04-20T02:12:57;10.63;;;9.87;;
7813;SDS011;3952;48.364;16.022;2023-04-20T02:15:25;10.23;;;9.40;;
7813;SDS011;3952;48.364;16.022;2023-04-20T02:17:53;11.93;;;11.03;;
7813;SDS011;3952;48.364;16.022;2023-04-20T02:20:21;12.07;;;11.17;;
7813;SDS011;3952;48.364;16.022;2023-04-20T02:22:48;11.27;;;10.30;;
7813;SDS011;3952;48.364;16.022;2023-04-20T02:25:16;11.50;;;10.50;;
7813;SDS011;3952;48.364;16.022;2023-04-20T02:27:43;11.37;;;10.37;;
7813;SDS011;3952;48.364;16.022;2023-04-20T02:30:11;10.50;;;9.70;;
7813;SDS011;3952;48.364;16.022;2023-04-20T02:32:40;10.47;;;9.67;;
7813;SDS011;3952;48.364;16.022;2023-04-20T02:35:08;11.00;;;10.00;;
7813;SDS011;3952;48.364;16.022;2023-04-20T02:37:35;10.70;;;9.83;;
7813;SDS011;3952;48.364;16.022;2023-04-20T02:40:02;11.80;;;10.80;;
7813;SDS011;3952;48.364;16.022;2023-04-20T02:42:31;11.33;;;10.43;;
7813;SDS011;3952;48.364;16.022;2023-04-20T02:44:58;11.07;;;10.27;;
7813;SDS011;3952;48.364;16.022;2023-04-20T02:47:25;11.90;;;10.90;;
7813;SDS011;3952;48.364;16.022;2023-04-20T02:49:54;11.33;;;10.37;;
7813;SDS011;3952;48.364;16.022;2023-04-20T02:52:21;12.37;;;11.37;;
7813;SDS011;3952;48.364;16.022;2023-04-20T02:54:49;10.93;;;10.07;;
7813;SDS011;3952;48.364;16.022;2023-04-20T02:57:16;11.43;;;10.00;;
7813;SDS011;3952;48.364;16.022;2023-04-20T02:59:43;10.70;;;9.90;;
7813;SDS011;3952;48.364;16.022;2023-04-20T03:02:10;11.00;;;10.10;;
7813;SDS011;3952;48.364;16.022;2023-04-20T03:04:37;10.60;;;9.80;;
7813;SDS011;3952;48.364;16.022;2023-04-20T03:07:06;11.17;;;10.27;;
7813;SDS011;3952;48.364;16.022;2023-04-20T03:09:33;10.73;;;9.93;;
7813;SDS011;3952;48.364;16.022;2023-04-20T03:12:01;10.93;;;10.10;;
7813;SDS011;3952;48.364;16.022;2023-04-20T03:14:28;11.23;;;10.17;;
7813;SDS011;3952;48.364;16.022;2023-04-20T03:16:56;10.00;;;9.27;;
7813;SDS011;3952;48.364;16.022;2023-04-20T03:19:23;10.23;;;9.33;;
7813;SDS011;3952;48.364;16.022;2023-04-20T03:21:50;10.30;;;9.60;;
7813;SDS011;3952;48.364;16.022;2023-04-20T03:24:19;11.37;;;10.40;;
7813;SDS011;3952;48.364;16.022;2023-04-20T03:26:46;11.37;;;10.47;;
7813;SDS011;3952;48.364;16.022;2023-04-20T03:29:13;11.17;;;10.30;;
7813;SDS011;3952;48.364;16.022;2023-04-20T03:31:40;11.47;;;10.50;;
7813;SDS011;3952;48.364;16.022;2023-04-20T03:34:07;11.67;;;10.77;;
7813;SDS011;3952;48.364;16.022;2023-04-20T03:36:35;11.80;;;10.80;;
7813;SDS011;3952;48.364;16.022;2023-04-20T03:39:03;12.10;;;11.20;;
7813;SDS011;3952;48.364;16.022;2023-04-20T03:41:31;12.20;;;11.20;;
7813;SDS011;3952;48.364;16.022;2023-04-20T03:43:58;12.47;;;11.47;;
7813;SDS011;3952;48.364;16.022;2023-04-20T03:46:26;12.10;;;11.10;;
7813;SDS011;3952;48.364;16.022;2023-04-20T03:48:53;13.47;;;12.37;;
7813;SDS011;3952;48.364;16.022;2023-04-20T03:51:20;12.73;;;11.67;;
7813;SDS011;3952;48.364;16.022;2023-04-20T03:53:47;12.33;;;11.23;;
7813;SDS011;3952;48.364;16.022;2023-04-20T03:56:15;13.33;;;12.23;;
7813;SDS011;3952;48.364;16.022;2023-04-20T03:58:44;13.67;;;12.47;;
7813;SDS011;3952;48.364;16.022;2023-04-20T04:01:11;13.37;;;12.10;;
7813;SDS011;3952;48.364;16.022;2023-04-20T04:03:39;13.20;;;12.10;;
7813;SDS011;3952;48.364;16.022;2023-04-20T04:06:07;14.70;;;13.30;;
7813;SDS011;3952;48.364;16.022;2023-04-20T04:08:35;14.40;;;13.03;;
7813;SDS011;3952;48.364;16.022;2023-04-20T04:11:02;14.43;;;13.13;;
7813;SDS011;3952;48.364;16.022;2023-04-20T04:13:30;15.50;;;14.10;;
7813;SDS011;3952;48.364;16.022;2023-04-20T04:15:58;16.63;;;15.03;;
7813;SDS011;3952;48.364;16.022;2023-04-20T04:18:26;17.87;;;16.13;;
7813;SDS011;3952;48.364;16.022;2023-04-20T04:20:56;17.80;;;16.00;;
7813;SDS011;3952;48.364;16.022;2023-04-20T04:23:24;17.27;;;15.57;;
7813;SDS011;3952;48.364;16.022;2023-04-20T04:25:51;18.23;;;16.53;;
7813;SDS011;3952;48.364;16.022;2023-04-20T04:28:21;17.83;;;15.97;;
7813;SDS011;3952;48.364;16.022;2023-04-20T04:30:48;16.20;;;14.57;;
7813;SDS011;3952;48.364;16.022;2023-04-20T04:33:17;15.53;;;14.13;;
7813;SDS011;3952;48.364;16.022;2023-04-20T04:35:46;15.73;;;14.13;;
7813;SDS011;3952;48.364;16.022;2023-04-20T04:38:13;15.90;;;14.30;;
7813;SDS011;3952;48.364;16.022;2023-04-20T04:40:41;15.33;;;13.90;;
7813;SDS011;3952;48.364;16.022;2023-04-20T04:43:09;15.60;;;14.10;;
7813;SDS011;3952;48.364;16.022;2023-04-20T04:45:37;14.33;;;13.03;;
7813;SDS011;3952;48.364;16.022;2023-04-20T04:48:06;13.67;;;12.50;;
7813;SDS011;3952;48.364;16.022;2023-04-20T04:50:37;13.90;;;12.63;;
7813;SDS011;3952;48.364;16.022;2023-04-20T04:53:05;13.27;;;12.27;;
7813;SDS011;3952;48.364;16.022;2023-04-20T04:55:32;13.57;;;12.30;;
7813;SDS011;3952;48.364;16.022;2023-04-20T04:57:59;14.03;;;12.73;;
7813;SDS011;3952;48.364;16.022;2023-04-20T05:00:26;15.53;;;13.93;;
7813;SDS011;3952;48.364;16.022;2023-04-20T05:02:55;13.90;;;12.70;;
7813;SDS011;3952;48.364;16.022;2023-04-20T05:05:22;15.23;;;12.97;;
7813;SDS011;3952;48.364;16.022;2023-04-20T05:07:52;14.03;;;12.70;;
7813;SDS011;3952;48.364;16.022;2023-04-20T05:10:19;15.33;;;13.27;;
7813;SDS011;3952;48.364;16.022;2023-04-20T05:12:47;14.33;;;12.80;;
7813;SDS011;3952;48.364;16.022;2023-04-20T05:15:14;13.97;;;12.57;;
7813;SDS011;3952;48.364;16.022;2023-04-20T05:17:42;14.60;;;13.30;;
7813;SDS011;3952;48.364;16.022;2023-04-20T05:20:09;15.13;;;13.17;;
7813;SDS011;3952;48.364;16.022;2023-04-20T05:22:38;15.03;;;13.57;;
7813;SDS011;3952;48.364;16.022;2023-04-20T05:25:07;14.80;;;13.20;;
7813;SDS011;3952;48.364;16.022;2023-04-20T05:27:35;15.10;;;13.37;;
7813;SDS011;3952;48.364;16.022;2023-04-20T05:30:03;14.67;;;13.37;;
7813;SDS011;3952;48.364;16.022;2023-04-20T05:32:31;14.57;;;13.27;;
7813;SDS011;3952;48.364;16.022;2023-04-20T05:34:59;14.43;;;13.13;;
7813;SDS011;3952;48.364;16.022;2023-04-20T05:37:26;14.17;;;12.77;;
7813;SDS011;3952;48.364;16.022;2023-04-20T05:39:53;14.80;;;13.33;;
7813;SDS011;3952;48.364;16.022;2023-04-20T05:42:21;17.13;;;14.00;;
7813;SDS011;3952;48.364;16.022;2023-04-20T05:44:49;14.77;;;13.37;;
7813;SDS011;3952;48.364;16.022;2023-04-20T05:47:16;15.30;;;13.80;;
7813;SDS011;3952;48.364;16.022;2023-04-20T05:49:43;15.17;;;13.40;;
7813;SDS011;3952;48.364;16.022;2023-04-20T05:52:10;15.40;;;13.90;;
7813;SDS011;3952;48.364;16.022;2023-04-20T05:54:37;15.13;;;13.63;;
7813;SDS011;3952;48.364;16.022;2023-04-20T05:57:04;16.83;;;14.87;;
7813;SDS011;3952;48.364;16.022;2023-04-20T05:59:33;15.97;;;14.33;;
7813;SDS011;3952;48.364;16.022;2023-04-20T06:02:01;17.40;;;15.50;;
7813;SDS011;3952;48.364;16.022;2023-04-20T06:04:28;15.87;;;14.27;;
7813;SDS011;3952;48.364;16.022;2023-04-20T06:06:55;19.17;;;16.37;;
7813;SDS011;3952;48.364;16.022;2023-04-20T06:09:24;16.97;;;15.17;;
7813;SDS011;3952;48.364;16.022;2023-04-20T06:11:51;18.47;;;15.50;;
7813;SDS011;3952;48.364;16.022;2023-04-20T06:14:19;17.80;;;15.00;;
7813;SDS011;3952;48.364;16.022;2023-04-20T06:16:47;19.23;;;15.60;;
7813;SDS011;3952;48.364;16.022;2023-04-20T06:19:15;16.83;;;15.00;;
7813;SDS011;3952;48.364;16.022;2023-04-20T06:21:42;19.17;;;15.57;;
7813;SDS011;3952;48.364;16.022;2023-04-20T06:24:09;19.63;;;15.83;;
7813;SDS011;3952;48.364;16.022;2023-04-20T06:26:36;18.13;;;16.20;;
7813;SDS011;3952;48.364;16.022;2023-04-20T06:29:03;16.07;;;14.43;;
7813;SDS011;3952;48.364;16.022;2023-04-20T06:31:30;20.73;;;16.50;;
7813;SDS011;3952;48.364;16.022;2023-04-20T06:33:59;17.20;;;15.40;;
7813;SDS011;3952;48.364;16.022;2023-04-20T06:36:26;20.50;;;16.40;;
7813;SDS011;3952;48.364;16.022;2023-04-20T06:38:54;19.77;;;16.43;;
7813;SDS011;3952;48.364;16.022;2023-04-20T06:41:21;18.77;;;15.67;;
7813;SDS011;3952;48.364;16.022;2023-04-20T06:43:49;19.30;;;16.80;;
7813;SDS011;3952;48.364;16.022;2023-04-20T06:46:16;17.97;;;15.47;;
7813;SDS011;3952;48.364;16.022;2023-04-20T06:48:43;20.90;;;16.43;;
7813;SDS011;3952;48.364;16.022;2023-04-20T06:51:12;20.30;;;15.90;;
7813;SDS011;3952;48.364;16.022;2023-04-20T06:53:39;19.87;;;15.77;;
7813;SDS011;3952;48.364;16.022;2023-04-20T06:56:07;20.40;;;16.70;;
7813;SDS011;3952;48.364;16.022;2023-04-20T06:58:35;17.73;;;15.80;;
7813;SDS011;3952;48.364;16.022;2023-04-20T07:01:02;20.80;;;16.47;;
7813;SDS011;3952;48.364;16.022;2023-04-20T07:03:30;20.07;;;15.90;;
7813;SDS011;3952;48.364;16.022;2023-04-20T07:05:57;20.43;;;15.73;;
7813;SDS011;3952;48.364;16.022;2023-04-20T07:08:26;20.20;;;16.87;;
7813;SDS011;3952;48.364;16.022;2023-04-20T07:10:53;22.30;;;16.47;;
7813;SDS011;3952;48.364;16.022;2023-04-20T07:13:20;17.20;;;15.33;;
7813;SDS011;3952;48.364;16.022;2023-04-20T07:15:48;21.00;;;17.17;;
7813;SDS011;3952;48.364;16.022;2023-04-20T07:18:15;18.47;;;15.93;;
7813;SDS011;3952;48.364;16.022;2023-04-20T07:20:42;19.83;;;16.07;;
7813;SDS011;3952;48.364;16.022;2023-04-20T07:23:09;18.03;;;15.17;;
7813;SDS011;3952;48.364;16.022;2023-04-20T07:25:38;17.93;;;16.00;;
7813;SDS011;3952;48.364;16.022;2023-04-20T07:28:05;19.93;;;16.63;;
7813;SDS011;3952;48.364;16.022;2023-04-20T07:30:32;19.60;;;16.87;;
7813;SDS011;3952;48.364;16.022;2023-04-20T07:33:00;19.50;;;17.37;;
7813;SDS011;3952;48.364;16.022;2023-04-20T07:35:27;20.53;;;16.73;;
7813;SDS011;3952;48.364;16.022;2023-04-20T07:37:54;21.13;;;16.57;;
7813;SDS011;3952;48.364;16.022;2023-04-20T07:40:21;19.93;;;16.93;;
7813;SDS011;3952;48.364;16.022;2023-04-20T07:42:50;21.27;;;17.27;;
7813;SDS011;3952;48.364;16.022;2023-04-20T07:45:18;21.57;;;17.03;;
7813;SDS011;3952;48.364;16.022;2023-04-20T07:47:46;21.33;;;17.43;;
7813;SDS011;3952;48.364;16.022;2023-04-20T07:50:15;20.00;;;16.33;;
7813;SDS011;3952;48.364;16.022;2023-04-20T07:52:43;21.37;;;17.27;;
7813;SDS011;3952;48.364;16.022;2023-04-20T07:55:10;20.97;;;16.57;;
7813;SDS011;3952;48.364;16.022;2023-04-20T07:57:38;19.10;;;16.77;;
7813;SDS011;3952;48.364;16.022;2023-04-20T08:00:10;19.57;;;16.17;;
7813;SDS011;3952;48.364;16.022;2023-04-20T08:02:39;18.93;;;16.33;;
7813;SDS011;3952;48.364;16.022;2023-04-20T08:05:07;20.57;;;16.53;;
7813;SDS011;3952;48.364;16.022;2023-04-20T08:07:35;22.07;;;17.40;;
7813;SDS011;3952;48.364;16.022;2023-04-20T08:10:02;18.70;;;16.47;;
7813;SDS011;3952;48.364;16.022;2023-04-20T08:12:30;19.73;;;16.50;;
7813;SDS011;3952;48.364;16.022;2023-04-20T08:14:57;17.27;;;15.47;;
7813;SDS011;3952;48.364;16.022;2023-04-20T08:17:29;18.07;;;14.97;;
7813;SDS011;3952;48.364;16.022;2023-04-20T08:19:57;18.73;;;16.03;;
7813;SDS011;3952;48.364;16.022;2023-04-20T08:22:24;16.57;;;15.00;;
7813;SDS011;3952;48.364;16.022;2023-04-20T08:24:54;17.90;;;15.40;;
7813;SDS011;3952;48.364;16.022;2023-04-20T08:27:21;20.20;;;16.37;;
7813;SDS011;3952;48.364;16.022;2023-04-20T08:29:49;21.30;;;15.87;;
7813;SDS011;3952;48.364;16.022;2023-04-20T08:32:16;18.30;;;16.10;;
7813;SDS011;3952;48.364;16.022;2023-04-20T08:34:48;19.33;;;16.20;;
7813;SDS011;3952;48.364;16.022;2023-04-20T08:37:15;18.67;;;16.47;;
7813;SDS011;3952;48.364;16.022;2023-04-20T08:39:42;19.03;;;15.63;;
7813;SDS011;3952;48.364;16.022;2023-04-20T08:42:09;17.00;;;14.80;;
7813;SDS011;3952;48.364;16.022;2023-04-20T08:44:37;18.10;;;15.50;;
7813;SDS011;3952;48.364;16.022;2023-04-20T08:47:05;19.53;;;16.27;;
7813;SDS011;3952;48.364;16.022;2023-04-20T08:49:34;18.03;;;16.00;;
7813;SDS011;3952;48.364;16.022;2023-04-20T08:52:05;22.23;;;16.90;;
7813;SDS011;3952;48.364;16.022;2023-04-20T08:54:35;18.37;;;15.87;;
7813;SDS011;3952;48.364;16.022;2023-04-20T08:57:03;17.40;;;15.67;;
7813;SDS011;3952;48.364;16.022;2023-04-20T08:59:31;17.00;;;15.23;;
7813;SDS011;3952;48.364;16.022;2023-04-20T09:02:08;17.20;;;15.10;;
7813;SDS011;3952;48.364;16.022;2023-04-20T09:04:37;20.00;;;16.90;;
7813;SDS011;3952;48.364;16.022;2023-04-20T09:07:14;17.87;;;15.97;;
7813;SDS011;3952;48.364;16.022;2023-04-20T09:09:52;19.70;;;16.60;;
7813;SDS011;3952;48.364;16.022;2023-04-20T09:12:20;18.63;;;16.57;;
7813;SDS011;3952;48.364;16.022;2023-04-20T09:14:49;17.47;;;15.63;;
7813;SDS011;3952;48.364;16.022;2023-04-20T09:17:18;18.50;;;16.47;;
7813;SDS011;3952;48.364;16.022;2023-04-20T09:19:56;18.00;;;16.10;;
7813;SDS011;3952;48.364;16.022;2023-04-20T09:22:32;17.37;;;15.67;;
7813;SDS011;3952;48.364;16.022;2023-04-20T09:25:00;19.20;;;16.23;;
7813;SDS011;3952;48.364;16.022;2023-04-20T09:27:38;20.53;;;16.23;;
7813;SDS011;3952;48.364;16.022;2023-04-20T09:30:06;21.40;;;17.20;;
7813;SDS011;3952;48.364;16.022;2023-04-20T09:32:35;18.13;;;16.23;;
7813;SDS011;3952;48.364;16.022;2023-04-20T09:35:02;18.10;;;16.30;;
7813;SDS011;3952;48.364;16.022;2023-04-20T09:37:32;17.70;;;15.73;;
7813;SDS011;3952;48.364;16.022;2023-04-20T09:39:59;17.90;;;15.47;;
7813;SDS011;3952;48.364;16.022;2023-04-20T09:42:27;18.80;;;16.90;;
7813;SDS011;3952;48.364;16.022;2023-04-20T09:44:59;19.50;;;16.57;;
7813;SDS011;3952;48.364;16.022;2023-04-20T09:47:27;19.10;;;17.10;;
7813;SDS011;3952;48.364;16.022;2023-04-20T09:49:55;18.70;;;16.67;;
7813;SDS011;3952;48.364;16.022;2023-04-20T09:52:23;18.60;;;16.60;;
7813;SDS011;3952;48.364;16.022;2023-04-20T09:54:54;18.40;;;16.50;;
7813;SDS011;3952;48.364;16.022;2023-04-20T09:57:22;18.93;;;17.00;;
7813;SDS011;3952;48.364;16.022;2023-04-20T09:59:52;18.47;;;16.47;;
7813;SDS011;3952;48.364;16.022;2023-04-20T10:02:21;20.33;;;16.33;;
7813;SDS011;3952;48.364;16.022;2023-04-20T10:04:52;18.27;;;16.43;;
7813;SDS011;3952;48.364;16.022;2023-04-20T10:07:23;17.53;;;15.77;;
7813;SDS011;3952;48.364;16.022;2023-04-20T10:10:03;18.47;;;16.57;;
7813;SDS011;3952;48.364;16.022;2023-04-20T10:12:31;19.50;;;17.53;;
7813;SDS011;3952;48.364;16.022;2023-04-20T10:15:01;17.90;;;16.07;;
7813;SDS011;3952;48.364;16.022;2023-04-20T10:17:29;18.70;;;16.83;;
7813;SDS011;3952;48.364;16.022;2023-04-20T10:19:56;18.13;;;16.23;;
7813;SDS011;3952;48.364;16.022;2023-04-20T10:22:24;17.10;;;15.43;;
7813;SDS011;3952;48.364;16.022;2023-04-20T10:24:56;18.80;;;16.83;;
7813;SDS011;3952;48.364;16.022;2023-04-20T10:27:25;17.70;;;15.90;;
7813;SDS011;3952;48.364;16.022;2023-04-20T10:29:53;18.97;;;16.97;;
7813;SDS011;3952;48.364;16.022;2023-04-20T10:32:20;20.50;;;18.43;;
7813;SDS011;3952;48.364;16.022;2023-04-20T10:34:59;19.53;;;17.53;;
7813;SDS011;3952;48.364;16.022;2023-04-20T10:37:28;19.00;;;17.00;;
7813;SDS011;3952;48.364;16.022;2023-04-20T10:39:56;19.33;;;17.23;;
7813;SDS011;3952;48.364;16.022;2023-04-20T10:42:23;18.27;;;16.43;;
7813;SDS011;3952;48.364;16.022;2023-04-20T10:44:54;21.33;;;17.50;;
7813;SDS011;3952;48.364;16.022;2023-04-20T10:47:25;19.70;;;16.67;;
7813;SDS011;3952;48.364;16.022;2023-04-20T10:49:53;17.80;;;15.90;;
7813;SDS011;3952;48.364;16.022;2023-04-20T10:52:31;18.30;;;16.60;;
7813;SDS011;3952;48.364;16.022;2023-04-20T10:55:00;15.87;;;14.40;;
7813;SDS011;3952;48.364;16.022;2023-04-20T10:57:29;16.97;;;15.23;;
7813;SDS011;3952;48.364;16.022;2023-04-20T10:59:56;17.10;;;15.50;;
7813;SDS011;3952;48.364;16.022;2023-04-20T11:02:23;17.40;;;15.80;;
7813;SDS011;3952;48.364;16.022;2023-04-20T11:04:52;17.73;;;16.13;;
7813;SDS011;3952;48.364;16.022;2023-04-20T11:07:24;17.20;;;15.70;;
7813;SDS011;3952;48.364;16.022;2023-04-20T11:09:52;16.13;;;14.63;;
7813;SDS011;3952;48.364;16.022;2023-04-20T11:12:20;16.87;;;15.37;;
7813;SDS011;3952;48.364;16.022;2023-04-20T11:14:52;16.20;;;14.70;;
7813;SDS011;3952;48.364;16.022;2023-04-20T11:17:30;17.37;;;15.80;;
7813;SDS011;3952;48.364;16.022;2023-04-20T11:20:03;16.40;;;14.83;;
7813;SDS011;3952;48.364;16.022;2023-04-20T11:22:34;16.03;;;14.50;;
7813;SDS011;3952;48.364;16.022;2023-04-20T11:25:02;16.70;;;14.83;;
7813;SDS011;3952;48.364;16.022;2023-04-20T11:27:31;17.03;;;15.33;;
7813;SDS011;3952;48.364;16.022;2023-04-20T11:30:00;16.13;;;14.70;;
7813;SDS011;3952;48.364;16.022;2023-04-20T11:32:30;16.27;;;14.97;;
7813;SDS011;3952;48.364;16.022;2023-04-20T11:34:58;16.47;;;14.97;;
7813;SDS011;3952;48.364;16.022;2023-04-20T11:37:26;15.17;;;13.63;;
7813;SDS011;3952;48.364;16.022;2023-04-20T11:40:00;17.33;;;13.13;;
7813;SDS011;3952;48.364;16.022;2023-04-20T11:42:30;14.20;;;12.73;;
7813;SDS011;3952;48.364;16.022;2023-04-20T11:44:57;15.20;;;13.90;;
7813;SDS011;3952;48.364;16.022;2023-04-20T11:47:26;15.37;;;14.07;;
7813;SDS011;3952;48.364;16.022;2023-04-20T11:49:53;14.07;;;12.87;;
7813;SDS011;3952;48.364;16.022;2023-04-20T11:52:20;14.27;;;13.17;;
7813;SDS011;3952;48.364;16.022;2023-04-20T11:54:48;14.90;;;13.50;;
7813;SDS011;3952;48.364;16.022;2023-04-20T11:57:15;14.07;;;12.77;;
7813;SDS011;3952;48.364;16.022;2023-04-20T11:59:42;13.47;;;12.47;;
7813;SDS011;3952;48.364;16.022;2023-04-20T12:02:13;12.10;;;11.20;;
7813;SDS011;3952;48.364;16.022;2023-04-20T12:04:41;11.87;;;11.03;;
7813;SDS011;3952;48.364;16.022;2023-04-20T12:07:08;12.60;;;11.63;;
7813;SDS011;3952;48.364;16.022;2023-04-20T12:09:35;13.10;;;11.93;;
7813;SDS011;3952;48.364;16.022;2023-04-20T12:12:02;11.50;;;10.70;;
7813;SDS011;3952;48.364;16.022;2023-04-20T12:14:30;13.90;;;12.70;;
7813;SDS011;3952;48.364;16.022;2023-04-20T12:16:58;12.90;;;11.60;;
7813;SDS011;3952;48.364;16.022;2023-04-20T12:19:27;11.27;;;10.57;;
7813;SDS011;3952;48.364;16.022;2023-04-20T12:21:54;12.33;;;11.33;;
7813;SDS011;3952;48.364;16.022;2023-04-20T12:24:22;11.03;;;10.10;;
7813;SDS011;3952;48.364;16.022;2023-04-20T12:26:49;9.53;;;8.63;;
7813;SDS011;3952;48.364;16.022;2023-04-20T12:29:16;10.80;;;9.80;;
7813;SDS011;3952;48.364;16.022;2023-04-20T12:31:43;10.43;;;9.37;;
7813;SDS011;3952;48.364;16.022;2023-04-20T12:34:10;10.57;;;9.87;;
7813;SDS011;3952;48.364;16.022;2023-04-20T12:36:39;10.73;;;9.97;;
7813;SDS011;3952;48.364;16.022;2023-04-20T12:39:07;9.87;;;8.97;;
7813;SDS011;3952;48.364;16.022;2023-04-20T12:41:35;9.43;;;8.73;;
7813;SDS011;3952;48.364;16.022;2023-04-20T12:44:03;11.27;;;8.97;;
7813;SDS011;3952;48.364;16.022;2023-04-20T12:46:30;9.97;;;9.17;;
7813;SDS011;3952;48.364;16.022;2023-04-20T12:48:57;11.20;;;10.50;;
7813;SDS011;3952;48.364;16.022;2023-04-20T12:51:25;9.20;;;8.60;;
7813;SDS011;3952;48.364;16.022;2023-04-20T12:53:54;9.63;;;8.23;;
7813;SDS011;3952;48.364;16.022;2023-04-20T12:56:22;8.27;;;7.73;;
7813;SDS011;3952;48.364;16.022;2023-04-20T12:58:49;9.20;;;8.60;;
7813;SDS011;3952;48.364;16.022;2023-04-20T13:01:16;8.47;;;7.97;;
7813;SDS011;3952;48.364;16.022;2023-04-20T13:03:44;7.87;;;7.37;;
7813;SDS011;3952;48.364;16.022;2023-04-20T13:06:11;8.30;;;7.80;;
7813;SDS011;3952;48.364;16.022;2023-04-20T13:08:38;8.40;;;7.80;;
7813;SDS011;3952;48.364;16.022;2023-04-20T13:11:06;8.23;;;7.47;;
7813;SDS011;3952;48.364;16.022;2023-04-20T13:13:36;7.90;;;7.30;;
7813;SDS011;3952;48.364;16.022;2023-04-20T13:16:03;7.40;;;6.90;;
7813;SDS011;3952;48.364;16.022;2023-04-20T13:18:30;7.77;;;7.27;;
7813;SDS011;3952;48.364;16.022;2023-04-20T13:20:58;7.40;;;7.00;;
7813;SDS011;3952;48.364;16.022;2023-04-20T13:23:25;7.70;;;7.20;;
7813;SDS011;3952;48.364;16.022;2023-04-20T13:25:52;8.10;;;7.50;;
7813;SDS011;3952;48.364;16.022;2023-04-20T13:28:23;6.67;;;6.17;;
7813;SDS011;3952;48.364;16.022;2023-04-20T13:30:50;6.57;;;6.00;;
7813;SDS011;3952;48.364;16.022;2023-04-20T13:33:19;6.90;;;6.50;;
7813;SDS011;3952;48.364;16.022;2023-04-20T13:35:47;7.17;;;6.73;;
7813;SDS011;3952;48.364;16.022;2023-04-20T13:38:14;7.17;;;6.53;;
7813;SDS011;3952;48.364;16.022;2023-04-20T13:40:41;6.93;;;6.43;;
7813;SDS011;3952;48.364;16.022;2023-04-20T13:43:09;7.30;;;6.83;;
7813;SDS011;3952;48.364;16.022;2023-04-20T13:45:37;7.17;;;6.67;;
7813;SDS011;3952;48.364;16.022;2023-04-20T13:48:05;6.80;;;6.40;;
7813;SDS011;3952;48.364;16.022;2023-04-20T13:50:32;6.40;;;6.00;;
7813;SDS011;3952;48.364;16.022;2023-04-20T13:52:59;7.00;;;6.50;;
7813;SDS011;3952;48.364;16.022;2023-04-20T13:55:27;7.00;;;6.33;;
7813;SDS011;3952;48.364;16.022;2023-04-20T13:57:54;6.73;;;6.33;;
7813;SDS011;3952;48.364;16.022;2023-04-20T14:00:21;6.60;;;6.20;;
7813;SDS011;3952;48.364;16.022;2023-04-20T14:02:51;6.23;;;5.83;;
7813;SDS011;3952;48.364;16.022;2023-04-20T14:05:18;6.33;;;5.93;;
7813;SDS011;3952;48.364;16.022;2023-04-20T14:07:46;6.07;;;5.67;;
7813;SDS011;3952;48.364;16.022;2023-04-20T14:10:13;5.43;;;5.13;;
7813;SDS011;3952;48.364;16.022;2023-04-20T14:12:40;4.83;;;4.43;;
7813;SDS011;3952;48.364;16.022;2023-04-20T14:15:08;5.83;;;5.50;;
7813;SDS011;3952;48.364;16.022;2023-04-20T14:17:36;5.83;;;5.43;;
7813;SDS011;3952;48.364;16.022;2023-04-20T14:20:05;6.03;;;5.63;;
7813;SDS011;3952;48.364;16.022;2023-04-20T14:22:33;6.20;;;5.73;;
7813;SDS011;3952;48.364;16.022;2023-04-20T14:25:01;6.20;;;5.80;;
7813;SDS011;3952;48.364;16.022;2023-04-20T14:27:29;5.30;;;4.90;;
7813;SDS011;3952;48.364;16.022;2023-04-20T14:29:56;5.93;;;5.53;;
7813;SDS011;3952;48.364;16.022;2023-04-20T14:32:23;5.27;;;4.87;;
7813;SDS011;3952;48.364;16.022;2023-04-20T14:34:51;4.60;;;4.33;;
7813;SDS011;3952;48.364;16.022;2023-04-20T14:37:19;6.33;;;5.93;;
7813;SDS011;3952;48.364;16.022;2023-04-20T14:39:49;5.80;;;5.43;;
7813;SDS011;3952;48.364;16.022;2023-04-20T14:42:16;5.83;;;5.43;;
7813;SDS011;3952;48.364;16.022;2023-04-20T14:44:43;5.67;;;5.37;;
7813;SDS011;3952;48.364;16.022;2023-04-20T14:47:12;5.93;;;5.60;;
7813;SDS011;3952;48.364;16.022;2023-04-20T14:49:39;5.50;;;5.20;;